Kezdőlap
METAR-TAF:

METAR-TAF

Repülőterek :

Barahona, Dominikai Köztársaság

földrajzi szélesség: 18-12N, földrajzi hosszúság: 071-06W, magasság: 3 m

Jelenlegi meteorológiai megfigyelések

A jelentés 11 perccel ezelõtt készült, 22:00 UTC
Délkeleti szél 14 kt
Hőmérséklet 32°C
Páratartalom 67%
Légköri nyomás 1013 hPa
Látótávolság 10 km, vagy több
Kevés felhő 2000 lábon, Cumulonimbus.
Szórványos felhőzet 2200 lábon

METAR: MDBH 192200Z 13014KT 9999 FEW020CB SCT022 32/25 Q1013 CB/NE/NW/N

Idő: 18:11 (22:11 UTC)

Előrejelzés

A jelentés 6 órával és 11 perccel ezelõtt készült, 16:00 UTC
Az előrejelzés 19-én 18 óra UTC és 20-én 18 óra UTC között érvényes
Délkeleti szél 10 kt
Látótávolság 10 km, vagy több
Kevés felhő 2200 lábon, Cumulonimbus.
Szórványos felhőzet 2200 lábon
20-én 04 óra UTC és 20-én 06 óra UTC között fokozatosan kialakuló
Északi szél kt

TAF: MDBH 191600Z 1918/2018 13010KT 9999 FEW022CB SCT022 BECMG 2004/2006 00000KT

Meteorológiai megfigyelések és előrejelzések több, mint 4000 repülőtéren (METAR és TAF jelentéseket).

A térképen piros és sárga pontok jelzik az elérhető meteorológiai állomásokat.

Mozgassa az egeret a pont fölött, hogy megjelenjen az állomás neve.

Azután kattintson az időjárási megfigyelések és előrejelzések megtekintéséhez.

A térkép megváltoztatása: kattintson a fekete keresztel jelölt zöld gombra ráközelítéshez, a vonallal jelölt zöld gombra távolításhoz, vagy a zöld nyilakra a szomszédos térképek eléréséhez.


METAR-TAF: